sensor_id;sensor_type;location;lat;lon;timestamp;P1;durP1;ratioP1;P2;durP2;ratioP2
11004;SDS011;5555;59.622;16.556;2024-02-15T00:01:00;25.73;;;12.83;;
11004;SDS011;5555;59.622;16.556;2024-02-15T00:03:25;22.13;;;12.00;;
11004;SDS011;5555;59.622;16.556;2024-02-15T00:05:51;27.03;;;13.03;;
11004;SDS011;5555;59.622;16.556;2024-02-15T00:08:17;20.97;;;11.73;;
11004;SDS011;5555;59.622;16.556;2024-02-15T00:10:44;30.03;;;13.50;;
11004;SDS011;5555;59.622;16.556;2024-02-15T00:13:11;26.73;;;12.77;;
11004;SDS011;5555;59.622;16.556;2024-02-15T00:15:37;21.43;;;11.93;;
11004;SDS011;5555;59.622;16.556;2024-02-15T00:18:03;19.70;;;11.40;;
11004;SDS011;5555;59.622;16.556;2024-02-15T00:20:29;21.27;;;12.03;;
11004;SDS011;5555;59.622;16.556;2024-02-15T00:22:54;24.20;;;11.60;;
11004;SDS011;5555;59.622;16.556;2024-02-15T00:25:21;21.83;;;11.10;;
11004;SDS011;5555;59.622;16.556;2024-02-15T00:27:46;18.97;;;12.00;;
11004;SDS011;5555;59.622;16.556;2024-02-15T00:30:12;17.57;;;10.77;;
11004;SDS011;5555;59.622;16.556;2024-02-15T00:32:38;23.37;;;10.73;;
11004;SDS011;5555;59.622;16.556;2024-02-15T00:35:04;23.73;;;12.67;;
11004;SDS011;5555;59.622;16.556;2024-02-15T00:37:34;19.93;;;11.80;;
11004;SDS011;5555;59.622;16.556;2024-02-15T00:40:00;19.97;;;11.53;;
11004;SDS011;5555;59.622;16.556;2024-02-15T00:42:29;19.83;;;11.33;;
11004;SDS011;5555;59.622;16.556;2024-02-15T00:44:56;18.27;;;11.07;;
11004;SDS011;5555;59.622;16.556;2024-02-15T00:47:23;26.53;;;13.37;;
11004;SDS011;5555;59.622;16.556;2024-02-15T00:49:48;19.67;;;11.43;;
11004;SDS011;5555;59.622;16.556;2024-02-15T00:52:15;25.67;;;11.83;;
11004;SDS011;5555;59.622;16.556;2024-02-15T00:54:43;24.77;;;12.77;;
11004;SDS011;5555;59.622;16.556;2024-02-15T00:57:09;18.37;;;10.80;;
11004;SDS011;5555;59.622;16.556;2024-02-15T00:59:35;16.47;;;10.53;;
11004;SDS011;5555;59.622;16.556;2024-02-15T01:02:01;14.87;;;10.30;;
11004;SDS011;5555;59.622;16.556;2024-02-15T01:04:27;17.37;;;10.10;;
11004;SDS011;5555;59.622;16.556;2024-02-15T01:06:53;19.37;;;11.60;;
11004;SDS011;5555;59.622;16.556;2024-02-15T01:09:19;15.97;;;10.30;;
11004;SDS011;5555;59.622;16.556;2024-02-15T01:11:45;16.63;;;10.77;;
11004;SDS011;5555;59.622;16.556;2024-02-15T01:14:11;18.00;;;10.40;;
11004;SDS011;5555;59.622;16.556;2024-02-15T01:16:36;17.67;;;11.10;;
11004;SDS011;5555;59.622;16.556;2024-02-15T01:19:02;20.80;;;11.37;;
11004;SDS011;5555;59.622;16.556;2024-02-15T01:21:28;17.60;;;11.10;;
11004;SDS011;5555;59.622;16.556;2024-02-15T01:23:53;17.07;;;11.13;;
11004;SDS011;5555;59.622;16.556;2024-02-15T01:26:19;17.37;;;11.43;;
11004;SDS011;5555;59.622;16.556;2024-02-15T01:28:45;16.57;;;11.20;;
11004;SDS011;5555;59.622;16.556;2024-02-15T01:31:11;18.87;;;12.20;;
11004;SDS011;5555;59.622;16.556;2024-02-15T01:33:38;20.70;;;12.80;;
11004;SDS011;5555;59.622;16.556;2024-02-15T01:36:04;20.13;;;12.90;;
11004;SDS011;5555;59.622;16.556;2024-02-15T01:38:30;20.40;;;12.27;;
11004;SDS011;5555;59.622;16.556;2024-02-15T01:40:56;22.47;;;13.17;;
11004;SDS011;5555;59.622;16.556;2024-02-15T01:43:21;22.83;;;13.77;;
11004;SDS011;5555;59.622;16.556;2024-02-15T01:45:47;24.73;;;14.27;;
11004;SDS011;5555;59.622;16.556;2024-02-15T01:48:14;22.23;;;13.33;;
11004;SDS011;5555;59.622;16.556;2024-02-15T01:50:41;22.97;;;13.10;;
11004;SDS011;5555;59.622;16.556;2024-02-15T01:53:07;33.40;;;16.00;;
11004;SDS011;5555;59.622;16.556;2024-02-15T01:55:34;37.43;;;17.83;;
11004;SDS011;5555;59.622;16.556;2024-02-15T01:58:01;58.37;;;19.70;;
11004;SDS011;5555;59.622;16.556;2024-02-15T02:00:27;92.83;;;22.97;;
11004;SDS011;5555;59.622;16.556;2024-02-15T02:02:55;74.07;;;21.60;;
11004;SDS011;5555;59.622;16.556;2024-02-15T02:05:26;57.43;;;17.90;;
11004;SDS011;5555;59.622;16.556;2024-02-15T02:07:53;449.63;;;49.87;;
11004;SDS011;5555;59.622;16.556;2024-02-15T02:10:19;232.33;;;34.10;;
11004;SDS011;5555;59.622;16.556;2024-02-15T02:12:45;178.20;;;28.70;;
11004;SDS011;5555;59.622;16.556;2024-02-15T02:15:11;206.70;;;31.00;;
11004;SDS011;5555;59.622;16.556;2024-02-15T02:17:37;179.40;;;30.27;;
11004;SDS011;5555;59.622;16.556;2024-02-15T02:20:05;193.97;;;29.87;;
11004;SDS011;5555;59.622;16.556;2024-02-15T02:22:33;269.13;;;40.97;;
11004;SDS011;5555;59.622;16.556;2024-02-15T02:27:31;181.57;;;30.53;;
11004;SDS011;5555;59.622;16.556;2024-02-15T02:29:58;360.67;;;46.00;;
11004;SDS011;5555;59.622;16.556;2024-02-15T02:32:27;302.30;;;39.73;;
11004;SDS011;5555;59.622;16.556;2024-02-15T02:34:53;377.30;;;44.80;;
11004;SDS011;5555;59.622;16.556;2024-02-15T02:37:24;75.43;;;21.80;;
11004;SDS011;5555;59.622;16.556;2024-02-15T02:39:50;67.70;;;19.37;;
11004;SDS011;5555;59.622;16.556;2024-02-15T02:42:16;170.83;;;27.40;;
11004;SDS011;5555;59.622;16.556;2024-02-15T02:44:41;177.30;;;26.93;;
11004;SDS011;5555;59.622;16.556;2024-02-15T02:47:07;51.60;;;17.13;;
11004;SDS011;5555;59.622;16.556;2024-02-15T02:49:35;117.87;;;23.40;;
11004;SDS011;5555;59.622;16.556;2024-02-15T02:52:01;257.57;;;36.53;;
11004;SDS011;5555;59.622;16.556;2024-02-15T02:54:26;117.90;;;26.93;;
11004;SDS011;5555;59.622;16.556;2024-02-15T02:56:54;97.43;;;23.70;;
11004;SDS011;5555;59.622;16.556;2024-02-15T02:59:19;46.97;;;18.10;;
11004;SDS011;5555;59.622;16.556;2024-02-15T03:01:46;50.83;;;18.20;;
11004;SDS011;5555;59.622;16.556;2024-02-15T03:04:14;40.57;;;16.93;;
11004;SDS011;5555;59.622;16.556;2024-02-15T03:06:42;83.20;;;22.87;;
11004;SDS011;5555;59.622;16.556;2024-02-15T03:09:11;83.53;;;23.00;;
11004;SDS011;5555;59.622;16.556;2024-02-15T03:11:39;46.13;;;17.80;;
11004;SDS011;5555;59.622;16.556;2024-02-15T03:14:05;47.70;;;17.97;;
11004;SDS011;5555;59.622;16.556;2024-02-15T03:16:33;40.63;;;16.63;;
11004;SDS011;5555;59.622;16.556;2024-02-15T03:18:59;39.13;;;17.13;;
11004;SDS011;5555;59.622;16.556;2024-02-15T03:21:27;44.30;;;18.70;;
11004;SDS011;5555;59.622;16.556;2024-02-15T03:23:53;42.83;;;17.17;;
11004;SDS011;5555;59.622;16.556;2024-02-15T03:26:23;37.63;;;16.17;;
11004;SDS011;5555;59.622;16.556;2024-02-15T03:29:02;36.90;;;15.17;;
11004;SDS011;5555;59.622;16.556;2024-02-15T03:31:28;36.17;;;15.63;;
11004;SDS011;5555;59.622;16.556;2024-02-15T03:33:55;36.70;;;15.97;;
11004;SDS011;5555;59.622;16.556;2024-02-15T03:36:22;41.47;;;15.80;;
11004;SDS011;5555;59.622;16.556;2024-02-15T03:38:48;35.63;;;17.10;;
11004;SDS011;5555;59.622;16.556;2024-02-15T03:41:13;36.73;;;16.60;;
11004;SDS011;5555;59.622;16.556;2024-02-15T03:43:39;33.77;;;15.83;;
11004;SDS011;5555;59.622;16.556;2024-02-15T03:46:05;36.00;;;16.73;;
11004;SDS011;5555;59.622;16.556;2024-02-15T03:48:33;48.43;;;18.77;;
11004;SDS011;5555;59.622;16.556;2024-02-15T03:50:59;41.20;;;16.53;;
11004;SDS011;5555;59.622;16.556;2024-02-15T03:53:26;36.57;;;16.60;;
11004;SDS011;5555;59.622;16.556;2024-02-15T03:55:55;36.53;;;16.87;;
11004;SDS011;5555;59.622;16.556;2024-02-15T03:58:21;37.80;;;16.30;;
11004;SDS011;5555;59.622;16.556;2024-02-15T04:00:47;36.53;;;16.60;;
11004;SDS011;5555;59.622;16.556;2024-02-15T04:03:12;40.40;;;16.80;;
11004;SDS011;5555;59.622;16.556;2024-02-15T04:05:38;32.43;;;15.60;;
11004;SDS011;5555;59.622;16.556;2024-02-15T04:08:04;30.23;;;14.37;;
11004;SDS011;5555;59.622;16.556;2024-02-15T04:10:30;32.40;;;16.03;;
11004;SDS011;5555;59.622;16.556;2024-02-15T04:12:56;23.87;;;13.73;;
11004;SDS011;5555;59.622;16.556;2024-02-15T04:15:23;25.43;;;13.90;;
11004;SDS011;5555;59.622;16.556;2024-02-15T04:17:49;27.00;;;14.57;;
11004;SDS011;5555;59.622;16.556;2024-02-15T04:20:20;25.27;;;13.90;;
11004;SDS011;5555;59.622;16.556;2024-02-15T04:22:47;21.77;;;12.83;;
11004;SDS011;5555;59.622;16.556;2024-02-15T04:25:15;24.77;;;12.93;;
11004;SDS011;5555;59.622;16.556;2024-02-15T04:27:45;25.47;;;13.20;;
11004;SDS011;5555;59.622;16.556;2024-02-15T04:30:12;23.90;;;13.40;;
11004;SDS011;5555;59.622;16.556;2024-02-15T04:32:38;23.37;;;13.10;;
11004;SDS011;5555;59.622;16.556;2024-02-15T04:35:04;25.97;;;14.57;;
11004;SDS011;5555;59.622;16.556;2024-02-15T04:37:30;20.23;;;11.40;;
11004;SDS011;5555;59.622;16.556;2024-02-15T04:39:57;21.10;;;13.30;;
11004;SDS011;5555;59.622;16.556;2024-02-15T04:42:23;21.77;;;13.20;;
11004;SDS011;5555;59.622;16.556;2024-02-15T04:44:52;27.23;;;14.90;;
11004;SDS011;5555;59.622;16.556;2024-02-15T04:47:19;21.07;;;12.50;;
11004;SDS011;5555;59.622;16.556;2024-02-15T04:49:45;20.70;;;12.33;;
11004;SDS011;5555;59.622;16.556;2024-02-15T04:52:11;22.73;;;13.27;;
11004;SDS011;5555;59.622;16.556;2024-02-15T04:54:36;23.43;;;13.30;;
11004;SDS011;5555;59.622;16.556;2024-02-15T04:57:03;22.80;;;13.03;;
11004;SDS011;5555;59.622;16.556;2024-02-15T04:59:28;20.37;;;11.90;;
11004;SDS011;5555;59.622;16.556;2024-02-15T05:01:55;22.77;;;12.70;;
11004;SDS011;5555;59.622;16.556;2024-02-15T05:04:23;21.23;;;12.73;;
11004;SDS011;5555;59.622;16.556;2024-02-15T05:06:49;22.17;;;12.90;;
11004;SDS011;5555;59.622;16.556;2024-02-15T05:09:15;21.57;;;12.40;;
11004;SDS011;5555;59.622;16.556;2024-02-15T05:11:43;20.37;;;11.90;;
11004;SDS011;5555;59.622;16.556;2024-02-15T05:14:15;22.63;;;13.27;;
11004;SDS011;5555;59.622;16.556;2024-02-15T05:16:47;22.80;;;12.43;;
11004;SDS011;5555;59.622;16.556;2024-02-15T05:19:16;26.27;;;13.93;;
11004;SDS011;5555;59.622;16.556;2024-02-15T05:21:43;29.03;;;14.00;;
11004;SDS011;5555;59.622;16.556;2024-02-15T05:24:15;22.63;;;12.90;;
11004;SDS011;5555;59.622;16.556;2024-02-15T05:26:43;21.80;;;12.80;;
11004;SDS011;5555;59.622;16.556;2024-02-15T05:29:12;20.23;;;12.10;;
11004;SDS011;5555;59.622;16.556;2024-02-15T05:31:38;27.17;;;13.67;;
11004;SDS011;5555;59.622;16.556;2024-02-15T05:34:05;23.53;;;13.10;;
11004;SDS011;5555;59.622;16.556;2024-02-15T05:36:33;24.87;;;13.43;;
11004;SDS011;5555;59.622;16.556;2024-02-15T05:38:59;25.63;;;14.07;;
11004;SDS011;5555;59.622;16.556;2024-02-15T05:41:25;23.97;;;13.03;;
11004;SDS011;5555;59.622;16.556;2024-02-15T05:43:51;21.63;;;12.50;;
11004;SDS011;5555;59.622;16.556;2024-02-15T05:46:19;18.73;;;12.13;;
11004;SDS011;5555;59.622;16.556;2024-02-15T05:48:48;19.10;;;12.30;;
11004;SDS011;5555;59.622;16.556;2024-02-15T05:51:14;19.53;;;12.40;;
11004;SDS011;5555;59.622;16.556;2024-02-15T05:53:40;18.73;;;12.87;;
11004;SDS011;5555;59.622;16.556;2024-02-15T05:56:06;20.20;;;12.40;;
11004;SDS011;5555;59.622;16.556;2024-02-15T05:58:33;18.73;;;11.83;;
11004;SDS011;5555;59.622;16.556;2024-02-15T06:01:00;19.00;;;11.43;;
11004;SDS011;5555;59.622;16.556;2024-02-15T06:03:30;22.37;;;12.97;;
11004;SDS011;5555;59.622;16.556;2024-02-15T06:05:58;19.77;;;12.07;;
11004;SDS011;5555;59.622;16.556;2024-02-15T06:08:31;21.77;;;12.73;;
11004;SDS011;5555;59.622;16.556;2024-02-15T06:10:59;21.10;;;12.83;;
11004;SDS011;5555;59.622;16.556;2024-02-15T06:13:26;25.20;;;13.77;;
11004;SDS011;5555;59.622;16.556;2024-02-15T06:15:52;28.73;;;13.93;;
11004;SDS011;5555;59.622;16.556;2024-02-15T06:18:22;29.17;;;14.73;;
11004;SDS011;5555;59.622;16.556;2024-02-15T06:20:56;27.60;;;14.60;;
11004;SDS011;5555;59.622;16.556;2024-02-15T06:23:24;26.57;;;14.53;;
11004;SDS011;5555;59.622;16.556;2024-02-15T06:25:52;25.70;;;14.33;;
11004;SDS011;5555;59.622;16.556;2024-02-15T06:28:22;25.43;;;14.07;;
11004;SDS011;5555;59.622;16.556;2024-02-15T06:31:09;28.83;;;14.17;;
11004;SDS011;5555;59.622;16.556;2024-02-15T06:33:54;27.60;;;14.57;;
11004;SDS011;5555;59.622;16.556;2024-02-15T06:36:45;29.90;;;15.30;;
11004;SDS011;5555;59.622;16.556;2024-02-15T06:39:31;34.77;;;16.43;;
11004;SDS011;5555;59.622;16.556;2024-02-15T06:42:03;37.87;;;16.37;;
11004;SDS011;5555;59.622;16.556;2024-02-15T06:44:29;36.00;;;17.33;;
11004;SDS011;5555;59.622;16.556;2024-02-15T06:46:55;33.07;;;16.07;;
11004;SDS011;5555;59.622;16.556;2024-02-15T06:49:21;35.63;;;16.20;;
11004;SDS011;5555;59.622;16.556;2024-02-15T06:51:49;31.30;;;15.80;;
11004;SDS011;5555;59.622;16.556;2024-02-15T06:54:16;34.33;;;17.13;;
11004;SDS011;5555;59.622;16.556;2024-02-15T06:56:43;34.57;;;16.13;;
11004;SDS011;5555;59.622;16.556;2024-02-15T06:59:11;32.57;;;15.73;;
11004;SDS011;5555;59.622;16.556;2024-02-15T07:01:41;30.17;;;15.33;;
11004;SDS011;5555;59.622;16.556;2024-02-15T07:04:08;28.63;;;14.80;;
11004;SDS011;5555;59.622;16.556;2024-02-15T07:06:36;31.30;;;15.03;;
11004;SDS011;5555;59.622;16.556;2024-02-15T07:09:04;29.63;;;15.07;;
11004;SDS011;5555;59.622;16.556;2024-02-15T07:11:34;31.37;;;15.43;;
11004;SDS011;5555;59.622;16.556;2024-02-15T07:14:00;30.33;;;15.20;;
11004;SDS011;5555;59.622;16.556;2024-02-15T07:16:26;32.07;;;15.10;;
11004;SDS011;5555;59.622;16.556;2024-02-15T07:18:52;33.40;;;17.33;;
11004;SDS011;5555;59.622;16.556;2024-02-15T07:21:19;27.97;;;15.97;;
11004;SDS011;5555;59.622;16.556;2024-02-15T07:23:48;24.83;;;15.43;;
11004;SDS011;5555;59.622;16.556;2024-02-15T07:26:13;31.73;;;15.10;;
11004;SDS011;5555;59.622;16.556;2024-02-15T07:28:40;29.27;;;15.20;;
11004;SDS011;5555;59.622;16.556;2024-02-15T07:31:06;30.87;;;15.97;;
11004;SDS011;5555;59.622;16.556;2024-02-15T07:33:32;23.93;;;13.93;;
11004;SDS011;5555;59.622;16.556;2024-02-15T07:36:00;27.10;;;14.43;;
11004;SDS011;5555;59.622;16.556;2024-02-15T07:38:26;28.17;;;14.13;;
11004;SDS011;5555;59.622;16.556;2024-02-15T07:40:51;26.17;;;14.07;;
11004;SDS011;5555;59.622;16.556;2024-02-15T07:43:17;27.20;;;13.03;;
11004;SDS011;5555;59.622;16.556;2024-02-15T07:45:43;24.20;;;12.83;;
11004;SDS011;5555;59.622;16.556;2024-02-15T07:48:08;20.57;;;12.60;;
11004;SDS011;5555;59.622;16.556;2024-02-15T07:50:34;21.03;;;13.20;;
11004;SDS011;5555;59.622;16.556;2024-02-15T07:53:02;20.33;;;13.10;;
11004;SDS011;5555;59.622;16.556;2024-02-15T07:55:30;19.93;;;11.93;;
11004;SDS011;5555;59.622;16.556;2024-02-15T07:57:55;21.97;;;12.33;;
11004;SDS011;5555;59.622;16.556;2024-02-15T08:00:23;17.37;;;10.90;;
11004;SDS011;5555;59.622;16.556;2024-02-15T08:02:52;20.57;;;12.00;;
11004;SDS011;5555;59.622;16.556;2024-02-15T08:05:18;14.70;;;10.90;;
11004;SDS011;5555;59.622;16.556;2024-02-15T08:07:45;18.77;;;11.50;;
11004;SDS011;5555;59.622;16.556;2024-02-15T08:10:16;17.50;;;11.43;;
11004;SDS011;5555;59.622;16.556;2024-02-15T08:12:43;15.03;;;10.33;;
11004;SDS011;5555;59.622;16.556;2024-02-15T08:15:11;18.03;;;12.07;;
11004;SDS011;5555;59.622;16.556;2024-02-15T08:17:41;18.30;;;12.07;;
11004;SDS011;5555;59.622;16.556;2024-02-15T08:20:11;15.93;;;12.27;;
11004;SDS011;5555;59.622;16.556;2024-02-15T08:22:39;16.60;;;12.00;;
11004;SDS011;5555;59.622;16.556;2024-02-15T08:25:11;18.40;;;11.90;;
11004;SDS011;5555;59.622;16.556;2024-02-15T08:27:38;19.23;;;12.17;;
11004;SDS011;5555;59.622;16.556;2024-02-15T08:30:09;18.17;;;11.83;;
11004;SDS011;5555;59.622;16.556;2024-02-15T08:32:37;19.20;;;12.10;;
11004;SDS011;5555;59.622;16.556;2024-02-15T08:35:04;17.40;;;11.53;;
11004;SDS011;5555;59.622;16.556;2024-02-15T08:37:36;16.93;;;11.83;;
11004;SDS011;5555;59.622;16.556;2024-02-15T08:40:03;21.23;;;12.77;;
11004;SDS011;5555;59.622;16.556;2024-02-15T08:42:30;20.13;;;13.53;;
11004;SDS011;5555;59.622;16.556;2024-02-15T08:44:56;21.10;;;13.00;;
11004;SDS011;5555;59.622;16.556;2024-02-15T08:47:24;21.27;;;12.43;;
11004;SDS011;5555;59.622;16.556;2024-02-15T08:49:49;20.03;;;12.57;;
11004;SDS011;5555;59.622;16.556;2024-02-15T08:52:15;19.20;;;11.67;;
11004;SDS011;5555;59.622;16.556;2024-02-15T08:54:43;19.40;;;11.80;;
11004;SDS011;5555;59.622;16.556;2024-02-15T08:57:09;18.73;;;12.60;;
11004;SDS011;5555;59.622;16.556;2024-02-15T08:59:36;21.27;;;12.80;;
11004;SDS011;5555;59.622;16.556;2024-02-15T09:02:03;19.53;;;12.20;;
11004;SDS011;5555;59.622;16.556;2024-02-15T09:04:30;25.70;;;13.43;;
11004;SDS011;5555;59.622;16.556;2024-02-15T09:06:56;22.80;;;13.10;;
11004;SDS011;5555;59.622;16.556;2024-02-15T09:09:22;20.57;;;12.70;;
11004;SDS011;5555;59.622;16.556;2024-02-15T09:11:47;23.37;;;13.30;;
11004;SDS011;5555;59.622;16.556;2024-02-15T09:14:13;18.57;;;12.57;;
11004;SDS011;5555;59.622;16.556;2024-02-15T09:16:38;21.20;;;13.27;;
11004;SDS011;5555;59.622;16.556;2024-02-15T09:19:04;24.03;;;13.57;;
11004;SDS011;5555;59.622;16.556;2024-02-15T09:21:31;23.33;;;13.10;;
11004;SDS011;5555;59.622;16.556;2024-02-15T09:23:58;18.80;;;11.97;;
11004;SDS011;5555;59.622;16.556;2024-02-15T09:26:24;16.87;;;12.20;;
11004;SDS011;5555;59.622;16.556;2024-02-15T09:28:52;18.80;;;11.97;;
11004;SDS011;5555;59.622;16.556;2024-02-15T09:31:18;16.40;;;10.93;;
11004;SDS011;5555;59.622;16.556;2024-02-15T09:33:44;15.63;;;11.00;;
11004;SDS011;5555;59.622;16.556;2024-02-15T09:36:10;14.73;;;10.73;;
11004;SDS011;5555;59.622;16.556;2024-02-15T09:38:37;14.30;;;10.50;;
11004;SDS011;5555;59.622;16.556;2024-02-15T09:41:03;14.83;;;10.70;;
11004;SDS011;5555;59.622;16.556;2024-02-15T09:43:32;14.60;;;11.00;;
11004;SDS011;5555;59.622;16.556;2024-02-15T09:45:59;13.03;;;10.87;;
11004;SDS011;5555;59.622;16.556;2024-02-15T09:48:29;13.57;;;10.40;;
11004;SDS011;5555;59.622;16.556;2024-02-15T09:50:57;12.30;;;9.83;;
11004;SDS011;5555;59.622;16.556;2024-02-15T09:53:23;12.47;;;10.17;;
11004;SDS011;5555;59.622;16.556;2024-02-15T09:55:55;11.37;;;9.23;;
11004;SDS011;5555;59.622;16.556;2024-02-15T09:58:29;12.53;;;9.57;;
11004;SDS011;5555;59.622;16.556;2024-02-15T10:00:58;12.40;;;10.37;;
11004;SDS011;5555;59.622;16.556;2024-02-15T10:03:28;16.03;;;11.13;;
11004;SDS011;5555;59.622;16.556;2024-02-15T10:05:56;16.13;;;11.90;;
11004;SDS011;5555;59.622;16.556;2024-02-15T10:08:22;15.13;;;10.70;;
11004;SDS011;5555;59.622;16.556;2024-02-15T10:11:04;15.13;;;11.13;;
11004;SDS011;5555;59.622;16.556;2024-02-15T10:13:32;14.80;;;11.23;;
11004;SDS011;5555;59.622;16.556;2024-02-15T10:15:58;14.27;;;11.37;;
11004;SDS011;5555;59.622;16.556;2024-02-15T10:18:23;16.83;;;12.07;;
11004;SDS011;5555;59.622;16.556;2024-02-15T10:20:58;15.27;;;11.93;;
11004;SDS011;5555;59.622;16.556;2024-02-15T10:23:23;15.07;;;11.50;;
11004;SDS011;5555;59.622;16.556;2024-02-15T10:25:49;13.87;;;10.70;;
11004;SDS011;5555;59.622;16.556;2024-02-15T10:28:20;12.30;;;10.10;;
11004;SDS011;5555;59.622;16.556;2024-02-15T10:30:48;12.40;;;10.37;;
11004;SDS011;5555;59.622;16.556;2024-02-15T10:33:33;12.40;;;9.90;;
11004;SDS011;5555;59.622;16.556;2024-02-15T10:36:10;10.77;;;9.20;;
11004;SDS011;5555;59.622;16.556;2024-02-15T10:38:36;11.03;;;9.00;;
11004;SDS011;5555;59.622;16.556;2024-02-15T10:41:05;11.93;;;8.97;;
11004;SDS011;5555;59.622;16.556;2024-02-15T10:43:35;10.50;;;8.93;;
11004;SDS011;5555;59.622;16.556;2024-02-15T10:46:04;10.20;;;8.87;;
11004;SDS011;5555;59.622;16.556;2024-02-15T10:48:34;9.63;;;7.80;;
11004;SDS011;5555;59.622;16.556;2024-02-15T10:51:00;9.93;;;8.47;;
11004;SDS011;5555;59.622;16.556;2024-02-15T10:53:32;10.37;;;8.50;;
11004;SDS011;5555;59.622;16.556;2024-02-15T10:58:56;10.30;;;7.80;;
11004;SDS011;5555;59.622;16.556;2024-02-15T11:01:32;10.70;;;8.40;;
11004;SDS011;5555;59.622;16.556;2024-02-15T11:04:04;10.57;;;8.40;;
11004;SDS011;5555;59.622;16.556;2024-02-15T11:06:35;10.03;;;8.67;;
11004;SDS011;5555;59.622;16.556;2024-02-15T11:09:06;10.13;;;8.63;;
11004;SDS011;5555;59.622;16.556;2024-02-15T11:11:33;11.90;;;8.90;;
11004;SDS011;5555;59.622;16.556;2024-02-15T11:16:48;11.27;;;8.67;;
11004;SDS011;5555;59.622;16.556;2024-02-15T11:19:56;9.87;;;7.90;;
11004;SDS011;5555;59.622;16.556;2024-02-15T11:22:09;11.07;;;9.10;;
11004;SDS011;5555;59.622;16.556;2024-02-15T11:24:36;10.83;;;8.50;;
11004;SDS011;5555;59.622;16.556;2024-02-15T11:27:02;9.00;;;7.70;;
11004;SDS011;5555;59.622;16.556;2024-02-15T11:29:48;10.43;;;8.23;;
11004;SDS011;5555;59.622;16.556;2024-02-15T11:32:38;10.17;;;7.10;;
11004;SDS011;5555;59.622;16.556;2024-02-15T11:43:06;11.53;;;7.90;;
11004;SDS011;5555;59.622;16.556;2024-02-15T11:45:33;10.27;;;8.63;;
11004;SDS011;5555;59.622;16.556;2024-02-15T11:48:07;10.17;;;7.93;;
11004;SDS011;5555;59.622;16.556;2024-02-15T11:50:36;10.63;;;8.60;;
11004;SDS011;5555;59.622;16.556;2024-02-15T11:53:04;11.13;;;8.37;;
11004;SDS011;5555;59.622;16.556;2024-02-15T11:55:34;11.13;;;8.03;;
11004;SDS011;5555;59.622;16.556;2024-02-15T11:58:03;11.37;;;8.33;;
11004;SDS011;5555;59.622;16.556;2024-02-15T12:00:41;11.70;;;8.97;;
11004;SDS011;5555;59.622;16.556;2024-02-15T12:03:26;10.57;;;8.47;;
11004;SDS011;5555;59.622;16.556;2024-02-15T12:06:10;10.43;;;7.73;;
11004;SDS011;5555;59.622;16.556;2024-02-15T12:08:54;9.80;;;8.40;;
11004;SDS011;5555;59.622;16.556;2024-02-15T12:11:39;10.53;;;7.90;;
11004;SDS011;5555;59.622;16.556;2024-02-15T12:14:24;15.60;;;8.97;;
11004;SDS011;5555;59.622;16.556;2024-02-15T12:17:10;11.80;;;8.47;;
11004;SDS011;5555;59.622;16.556;2024-02-15T12:19:56;13.00;;;8.47;;
11004;SDS011;5555;59.622;16.556;2024-02-15T12:22:28;11.47;;;8.63;;
11004;SDS011;5555;59.622;16.556;2024-02-15T12:25:01;12.67;;;8.83;;
11004;SDS011;5555;59.622;16.556;2024-02-15T12:27:54;15.00;;;9.43;;
11004;SDS011;5555;59.622;16.556;2024-02-15T12:30:21;19.33;;;9.37;;
11004;SDS011;5555;59.622;16.556;2024-02-15T12:32:51;17.00;;;9.33;;
11004;SDS011;5555;59.622;16.556;2024-02-15T12:35:18;17.83;;;9.30;;
11004;SDS011;5555;59.622;16.556;2024-02-15T12:37:48;58.40;;;10.50;;
11004;SDS011;5555;59.622;16.556;2024-02-15T12:40:36;76.40;;;10.30;;
11004;SDS011;5555;59.622;16.556;2024-02-15T12:43:06;81.43;;;11.30;;
11004;SDS011;5555;59.622;16.556;2024-02-15T12:45:36;99.80;;;14.77;;
11004;SDS011;5555;59.622;16.556;2024-02-15T12:48:05;55.03;;;11.17;;
11004;SDS011;5555;59.622;16.556;2024-02-15T12:50:32;110.83;;;14.63;;
11004;SDS011;5555;59.622;16.556;2024-02-15T12:52:59;20.43;;;10.77;;
11004;SDS011;5555;59.622;16.556;2024-02-15T12:55:37;45.60;;;11.57;;
11004;SDS011;5555;59.622;16.556;2024-02-15T12:58:05;22.63;;;10.57;;
11004;SDS011;5555;59.622;16.556;2024-02-15T13:00:39;16.20;;;10.27;;
11004;SDS011;5555;59.622;16.556;2024-02-15T13:03:06;24.47;;;10.47;;
11004;SDS011;5555;59.622;16.556;2024-02-15T13:05:37;22.17;;;10.20;;
11004;SDS011;5555;59.622;16.556;2024-02-15T13:08:03;16.17;;;9.97;;
11004;SDS011;5555;59.622;16.556;2024-02-15T13:10:38;35.53;;;7.93;;
11004;SDS011;5555;59.622;16.556;2024-02-15T13:13:07;13.37;;;7.93;;
11004;SDS011;5555;59.622;16.556;2024-02-15T13:15:34;35.10;;;9.30;;
11004;SDS011;5555;59.622;16.556;2024-02-15T13:18:01;14.70;;;9.00;;
11004;SDS011;5555;59.622;16.556;2024-02-15T13:20:30;16.97;;;7.37;;
11004;SDS011;5555;59.622;16.556;2024-02-15T13:23:00;14.23;;;7.23;;
11004;SDS011;5555;59.622;16.556;2024-02-15T13:25:33;19.00;;;7.20;;
11004;SDS011;5555;59.622;16.556;2024-02-15T13:28:04;26.83;;;8.10;;
11004;SDS011;5555;59.622;16.556;2024-02-15T13:30:31;14.73;;;7.67;;
11004;SDS011;5555;59.622;16.556;2024-02-15T13:32:57;14.70;;;8.10;;
11004;SDS011;5555;59.622;16.556;2024-02-15T13:35:23;10.93;;;8.27;;
11004;SDS011;5555;59.622;16.556;2024-02-15T13:37:52;14.37;;;8.03;;
11004;SDS011;5555;59.622;16.556;2024-02-15T13:40:20;14.37;;;9.23;;
11004;SDS011;5555;59.622;16.556;2024-02-15T13:42:49;13.83;;;8.90;;
11004;SDS011;5555;59.622;16.556;2024-02-15T13:45:22;17.03;;;10.50;;
11004;SDS011;5555;59.622;16.556;2024-02-15T13:47:49;17.30;;;9.80;;
11004;SDS011;5555;59.622;16.556;2024-02-15T13:50:21;19.13;;;9.03;;
11004;SDS011;5555;59.622;16.556;2024-02-15T13:52:47;17.77;;;9.43;;
11004;SDS011;5555;59.622;16.556;2024-02-15T13:55:13;37.43;;;9.47;;
11004;SDS011;5555;59.622;16.556;2024-02-15T13:57:40;26.37;;;9.57;;
11004;SDS011;5555;59.622;16.556;2024-02-15T14:00:10;14.33;;;7.83;;
11004;SDS011;5555;59.622;16.556;2024-02-15T14:02:39;14.00;;;7.77;;
11004;SDS011;5555;59.622;16.556;2024-02-15T14:05:06;12.13;;;7.30;;
11004;SDS011;5555;59.622;16.556;2024-02-15T14:07:34;11.90;;;7.83;;
11004;SDS011;5555;59.622;16.556;2024-02-15T14:10:03;12.10;;;6.90;;
11004;SDS011;5555;59.622;16.556;2024-02-15T14:12:29;18.90;;;8.53;;
11004;SDS011;5555;59.622;16.556;2024-02-15T14:14:55;16.07;;;9.13;;
11004;SDS011;5555;59.622;16.556;2024-02-15T14:17:21;30.50;;;9.80;;
11004;SDS011;5555;59.622;16.556;2024-02-15T14:19:47;31.30;;;9.87;;
11004;SDS011;5555;59.622;16.556;2024-02-15T14:22:14;34.90;;;10.40;;
11004;SDS011;5555;59.622;16.556;2024-02-15T14:24:44;171.47;;;22.53;;
11004;SDS011;5555;59.622;16.556;2024-02-15T14:27:10;54.87;;;13.90;;
11004;SDS011;5555;59.622;16.556;2024-02-15T14:29:36;35.50;;;11.53;;
11004;SDS011;5555;59.622;16.556;2024-02-15T14:32:10;26.03;;;11.17;;
11004;SDS011;5555;59.622;16.556;2024-02-15T14:34:54;40.80;;;11.67;;
11004;SDS011;5555;59.622;16.556;2024-02-15T14:37:21;25.97;;;10.87;;
11004;SDS011;5555;59.622;16.556;2024-02-15T14:39:47;336.00;;;38.67;;
11004;SDS011;5555;59.622;16.556;2024-02-15T14:42:13;47.87;;;14.47;;
11004;SDS011;5555;59.622;16.556;2024-02-15T14:44:39;21.73;;;12.83;;
11004;SDS011;5555;59.622;16.556;2024-02-15T14:47:05;178.80;;;26.87;;